Terminal Aerodrome Forecast
Issued by NWS Billings, MT

Home | Current Version | Previous Version | Text Only | Print | Product List | Glossary On
Versions: 1 2 3 4 5 6 7 8 9 10 11 12 13 14 15
000
FTUS45 KBYZ 252334
TAFBIL
TAF
KBIL 252334Z 2600/2624 02006KT P6SM VCSH FEW040 BKN060
     FM260300 VRB06KT P6SM VCSH SCT070
     FM260600 25006KT P6SM FEW070 SCT150=

USA.gov is the U.S. government's official web portal to all federal, state and local government web resources and services.